Time;durP1;ratioP1;P1;durP2;ratioP2;P2;SDS_P1;SDS_P2;PMS_P1;PMS_P2;Temp;Humidity;BMP_temperature;BMP_pressure;BME280_temperature;BME280_humidity;BME280_pressure;Samples;Min_cycle;Max_cycle;Signal;HPM_P1;HPM_P2
2022/03/21 00:00:39;;;;;;;11.02;7.82;;;;;;;;;;143742;607;46022;-65
2022/03/21 00:03:13;;;;;;;15.50;8.18;;;;;;;;;;143739;571;47019;-64
2022/03/21 00:05:40;;;;;;;11.93;7.57;;;;;;;;;;143740;608;46012;-65
2022/03/21 00:08:07;;;;;;;14.40;8.93;;;;;;;;;;143740;569;45018;-65
2022/03/21 00:10:34;;;;;;;15.98;9.20;;;;;;;;;;143742;604;45023;-65
2022/03/21 00:13:02;;;;;;;11.75;8.88;;;;;;;;;;143742;592;47018;-64
2022/03/21 00:15:32;;;;;;;16.10;10.57;;;;;;;;;;143738;579;47012;-64
2022/03/21 00:18:03;;;;;;;16.40;10.55;;;;;;;;;;143740;603;45019;-64
2022/03/21 00:20:31;;;;;;;15.95;10.02;;;;;;;;;;143743;575;46022;-65
2022/03/21 00:22:58;;;;;;;15.75;9.55;;;;;;;;;;143730;586;47018;-65
2022/03/21 00:25:26;;;;;;;13.77;9.15;;;;;;;;;;143739;571;47012;-65
2022/03/21 00:27:53;;;;;;;16.33;9.15;;;;;;;;;;143742;585;45018;-65
2022/03/21 00:30:20;;;;;;;15.13;9.18;;;;;;;;;;143743;566;46022;-65
2022/03/21 00:32:48;;;;;;;13.73;8.30;;;;;;;;;;143738;729;47020;-64
2022/03/21 00:35:15;;;;;;;12.50;7.82;;;;;;;;;;143738;649;47012;-65
2022/03/21 00:37:42;;;;;;;12.48;7.72;;;;;;;;;;143741;702;45018;-64
2022/03/21 00:40:11;;;;;;;12.98;9.05;;;;;;;;;;143742;600;45023;-64
2022/03/21 00:42:39;;;;;;;12.63;8.48;;;;;;;;;;143739;596;47018;-64
2022/03/21 00:45:09;;;;;;;14.48;10.00;;;;;;;;;;143739;571;46012;-65
2022/03/21 00:47:37;;;;;;;19.10;10.23;;;;;;;;;;143734;575;46034;-65
2022/03/21 00:50:06;;;;;;;17.15;10.68;;;;;;;;;;143743;689;46022;-65
2022/03/21 00:52:43;;;;;;;20.15;9.80;;;;;;;;;;143738;691;47018;-64
2022/03/21 00:55:11;;;;;;;15.52;9.30;;;;;;;;;;143739;680;46012;-65
2022/03/21 00:57:42;;;;;;;13.77;9.25;;;;;;;;;;143740;575;46018;-65
2022/03/21 01:00:15;;;;;;;14.90;8.20;;;;;;;;;;143745;607;46022;-65
2022/03/21 01:02:42;;;;;;;14.43;8.63;;;;;;;;;;143740;604;47020;-64
2022/03/21 01:05:11;;;;;;;15.68;8.55;;;;;;;;;;143740;588;46012;-64
2022/03/21 01:07:39;;;;;;;15.20;7.62;;;;;;;;;;143742;586;45018;-64
2022/03/21 01:10:08;;;;;;;12.45;6.12;;;;;;;;;;143744;578;46023;-64
2022/03/21 01:12:35;;;;;;;15.20;7.32;;;;;;;;;;143734;587;47020;-64
2022/03/21 01:15:03;;;;;;;11.98;6.45;;;;;;;;;;143740;563;46012;-65
2022/03/21 01:17:30;;;;;;;12.75;6.62;;;;;;;;;;143742;648;45019;-64
2022/03/21 01:19:57;;;;;;;12.65;6.80;;;;;;;;;;143744;575;46022;-65
2022/03/21 01:22:24;;;;;;;12.27;7.50;;;;;;;;;;143739;618;47020;-66
2022/03/21 01:24:51;;;;;;;13.82;6.50;;;;;;;;;;143741;580;46025;-65
2022/03/21 01:27:18;;;;;;;16.62;9.75;;;;;;;;;;143742;720;45018;-64
2022/03/21 01:29:45;;;;;;;15.15;11.23;;;;;;;;;;143743;569;45022;-64
2022/03/21 01:32:12;;;;;;;14.13;9.80;;;;;;;;;;143741;585;47019;-65
2022/03/21 01:34:39;;;;;;;16.45;11.50;;;;;;;;;;143740;606;46012;-64
2022/03/21 01:37:06;;;;;;;20.08;12.35;;;;;;;;;;143736;567;45018;-65
2022/03/21 01:39:33;;;;;;;19.95;14.10;;;;;;;;;;143744;572;45023;-64
2022/03/21 01:42:00;;;;;;;18.95;12.73;;;;;;;;;;143740;607;47021;-64
2022/03/21 01:44:27;;;;;;;14.60;9.38;;;;;;;;;;143741;578;47010;-65
2022/03/21 01:46:55;;;;;;;20.67;12.30;;;;;;;;;;143740;577;45019;-64
2022/03/21 01:49:22;;;;;;;17.12;9.93;;;;;;;;;;143744;604;45023;-64
2022/03/21 01:51:49;;;;;;;21.05;12.35;;;;;;;;;;143740;582;47020;-64
2022/03/21 01:57:02;;;;;;;13.25;7.35;;;;;;;;;;143740;603;45018;-65
2022/03/21 01:59:30;;;;;;;11.77;7.00;;;;;;;;;;143745;569;45022;-65
2022/03/21 02:01:57;;;;;;;12.85;6.68;;;;;;;;;;143736;738;47011;-65
2022/03/21 02:04:23;;;;;;;10.75;7.12;;;;;;;;;;143740;573;47010;-64
2022/03/21 02:06:51;;;;;;;12.90;7.22;;;;;;;;;;143740;572;45018;-65
2022/03/21 02:09:18;;;;;;;13.57;7.57;;;;;;;;;;143744;581;46022;-65
2022/03/21 02:11:45;;;;;;;15.77;7.00;;;;;;;;;;143740;578;47018;-65
2022/03/21 02:14:12;;;;;;;14.87;7.18;;;;;;;;;;143742;660;46027;-65
2022/03/21 02:16:40;;;;;;;12.60;6.97;;;;;;;;;;143742;637;45019;-65
2022/03/21 02:19:28;;;;;;;10.85;6.43;;;;;;;;;;143745;582;45023;-64
2022/03/21 02:22:45;;;;;;;11.35;7.32;;;;;;;;;;143742;576;47018;-64
2022/03/21 02:25:35;;;;;;;13.93;7.87;;;;;;;;;;143740;576;47011;-65
2022/03/21 02:28:07;;;;;;;13.32;6.62;;;;;;;;;;143737;569;45911;-65
2022/03/21 02:30:38;;;;;;;21.83;7.68;;;;;;;;;;143746;570;45022;-65
2022/03/21 02:33:06;;;;;;;15.43;8.35;;;;;;;;;;143740;703;47021;-64
2022/03/21 02:35:33;;;;;;;15.23;8.57;;;;;;;;;;143740;613;47010;-64
2022/03/21 02:38:01;;;;;;;12.15;7.93;;;;;;;;;;143740;702;45018;-65
2022/03/21 02:40:29;;;;;;;14.00;9.23;;;;;;;;;;143744;596;46023;-64
2022/03/21 02:42:56;;;;;;;12.27;7.97;;;;;;;;;;143741;594;47018;-64
2022/03/21 02:45:23;;;;;;;12.07;7.95;;;;;;;;;;143742;586;46025;-64
2022/03/21 02:47:50;;;;;;;15.80;10.32;;;;;;;;;;143743;656;45019;-64
2022/03/21 02:50:25;;;;;;;16.45;10.10;;;;;;;;;;143743;583;45022;-64
2022/03/21 02:52:54;;;;;;;15.47;9.97;;;;;;;;;;143736;579;47018;-64
2022/03/21 02:55:21;;;;;;;13.02;9.02;;;;;;;;;;143740;567;46022;-64
2022/03/21 02:57:48;;;;;;;18.25;10.32;;;;;;;;;;143741;604;45018;-64
2022/03/21 03:00:15;;;;;;;17.85;9.18;;;;;;;;;;143743;654;46022;-64
2022/03/21 03:02:42;;;;;;;13.23;8.30;;;;;;;;;;143742;566;47018;-64
2022/03/21 03:05:09;;;;;;;13.07;8.35;;;;;;;;;;143741;575;46010;-64
2022/03/21 03:07:36;;;;;;;13.57;9.25;;;;;;;;;;143739;607;45018;-64
2022/03/21 03:10:04;;;;;;;18.27;10.55;;;;;;;;;;143746;585;46023;-64
2022/03/21 03:12:32;;;;;;;16.12;10.18;;;;;;;;;;143744;589;47018;-64
2022/03/21 03:14:59;;;;;;;14.10;8.70;;;;;;;;;;143740;580;47010;-64
2022/03/21 03:17:26;;;;;;;11.25;7.68;;;;;;;;;;143738;570;45019;-64
2022/03/21 03:19:53;;;;;;;13.98;9.07;;;;;;;;;;143746;590;45022;-64
2022/03/21 03:22:20;;;;;;;16.70;8.35;;;;;;;;;;143742;605;47018;-64
2022/03/21 03:24:48;;;;;;;14.10;8.57;;;;;;;;;;143741;583;47010;-64
2022/03/21 03:27:15;;;;;;;12.75;8.70;;;;;;;;;;143742;588;45018;-64
2022/03/21 03:29:42;;;;;;;12.18;8.40;;;;;;;;;;143745;599;46022;-64
2022/03/21 03:32:09;;;;;;;14.68;9.23;;;;;;;;;;143741;591;47019;-63
2022/03/21 03:34:36;;;;;;;17.50;9.23;;;;;;;;;;143742;614;46030;-64
2022/03/21 03:37:04;;;;;;;14.15;8.82;;;;;;;;;;143741;637;45018;-64
2022/03/21 03:39:31;;;;;;;20.80;10.82;;;;;;;;;;143745;689;46023;-64
2022/03/21 03:41:58;;;;;;;15.82;8.77;;;;;;;;;;143734;594;47018;-64
2022/03/21 03:44:26;;;;;;;14.98;9.52;;;;;;;;;;143741;579;46010;-64
2022/03/21 03:46:54;;;;;;;17.95;10.43;;;;;;;;;;143742;622;45019;-63
2022/03/21 03:49:21;;;;;;;18.35;11.40;;;;;;;;;;143743;582;45022;-64
2022/03/21 03:51:48;;;;;;;16.20;9.57;;;;;;;;;;143742;593;47018;-64
2022/03/21 03:54:15;;;;;;;15.45;9.05;;;;;;;;;;143739;564;46011;-64
2022/03/21 03:56:42;;;;;;;16.98;9.00;;;;;;;;;;143742;654;45912;-65
2022/03/21 03:59:09;;;;;;;18.50;9.45;;;;;;;;;;143744;595;45022;-65
2022/03/21 04:01:38;;;;;;;11.07;8.00;;;;;;;;;;143741;604;47021;-64
2022/03/21 04:04:05;;;;;;;17.10;9.70;;;;;;;;;;143741;587;46010;-64
2022/03/21 04:06:32;;;;;;;15.48;9.63;;;;;;;;;;143737;577;45018;-65
2022/03/21 04:08:59;;;;;;;18.55;11.00;;;;;;;;;;143745;590;45023;-65
2022/03/21 04:11:26;;;;;;;18.37;9.25;;;;;;;;;;143743;614;47018;-65
2022/03/21 04:13:53;;;;;;;17.83;9.27;;;;;;;;;;143741;587;46028;-64
2022/03/21 04:16:20;;;;;;;13.95;8.05;;;;;;;;;;143740;602;47016;-64
2022/03/21 04:18:47;;;;;;;18.17;9.95;;;;;;;;;;143745;594;45023;-64
2022/03/21 04:21:14;;;;;;;18.33;9.68;;;;;;;;;;143741;614;47018;-64
2022/03/21 04:23:41;;;;;;;15.73;9.30;;;;;;;;;;143740;579;47010;-65
2022/03/21 04:26:08;;;;;;;17.62;9.73;;;;;;;;;;143740;629;45912;-65
2022/03/21 04:28:35;;;;;;;25.42;10.43;;;;;;;;;;143745;602;46022;-65
2022/03/21 04:31:02;;;;;;;19.10;9.45;;;;;;;;;;143739;601;46040;-65
2022/03/21 04:33:30;;;;;;;16.87;8.43;;;;;;;;;;143740;586;47010;-65
2022/03/21 04:35:57;;;;;;;13.82;9.18;;;;;;;;;;143744;607;45018;-65
2022/03/21 04:38:24;;;;;;;12.95;8.25;;;;;;;;;;143745;574;45023;-65
2022/03/21 04:40:51;;;;;;;10.82;7.37;;;;;;;;;;143741;583;47018;-65
2022/03/21 04:43:20;;;;;;;15.65;7.90;;;;;;;;;;143742;667;46010;-64
2022/03/21 04:45:49;;;;;;;14.10;8.20;;;;;;;;;;143743;566;45019;-65
2022/03/21 04:48:16;;;;;;;10.80;7.12;;;;;;;;;;143745;564;45027;-65
2022/03/21 04:50:43;;;;;;;17.42;7.50;;;;;;;;;;143741;624;47018;-65
2022/03/21 04:53:11;;;;;;;13.23;8.93;;;;;;;;;;143740;587;47010;-65
2022/03/21 04:55:41;;;;;;;17.20;8.93;;;;;;;;;;143739;577;45018;-65
2022/03/21 04:58:09;;;;;;;28.30;9.23;;;;;;;;;;143746;609;46022;-64
2022/03/21 05:00:38;;;;;;;17.65;9.98;;;;;;;;;;143741;569;47020;-65
2022/03/21 05:03:08;;;;;;;17.02;9.68;;;;;;;;;;143742;684;46010;-65
2022/03/21 05:05:36;;;;;;;15.27;9.68;;;;;;;;;;143743;577;45018;-64
2022/03/21 05:08:04;;;;;;;14.70;9.60;;;;;;;;;;143744;589;46022;-65
2022/03/21 05:10:32;;;;;;;19.65;9.77;;;;;;;;;;143740;564;47021;-64
2022/03/21 05:12:59;;;;;;;17.87;9.95;;;;;;;;;;143739;606;46022;-65
2022/03/21 05:15:26;;;;;;;18.12;9.63;;;;;;;;;;143743;569;45019;-65
2022/03/21 05:17:53;;;;;;;13.18;9.10;;;;;;;;;;143743;572;45023;-65
2022/03/21 05:20:21;;;;;;;24.27;9.45;;;;;;;;;;143734;564;47018;-65
2022/03/21 05:31:09;;;;;;;22.85;10.68;;;;;;;;;;143746;608;45019;-66
2022/03/21 05:36:27;;;;;;;12.93;8.95;;;;;;;;;;143743;598;45020;-65
2022/03/21 05:38:55;;;;;;;21.58;10.20;;;;;;;;;;143745;607;45023;-64
2022/03/21 05:41:22;;;;;;;21.58;11.77;;;;;;;;;;143743;582;47018;-65
2022/03/21 05:43:50;;;;;;;16.80;10.27;;;;;;;;;;143741;714;46010;-65
2022/03/21 05:46:17;;;;;;;15.90;9.15;;;;;;;;;;143738;571;45019;-64
2022/03/21 05:48:59;;;;;;;17.40;10.18;;;;;;;;;;143746;584;46022;-64
2022/03/21 05:51:28;;;;;;;21.25;10.93;;;;;;;;;;143743;580;47018;-64
2022/03/21 05:54:03;;;;;;;15.57;9.23;;;;;;;;;;143741;668;46010;-64
2022/03/21 05:56:31;;;;;;;17.58;9.90;;;;;;;;;;143740;642;45912;-64
2022/03/21 06:00:20;;;;;;;13.02;8.95;;;;;;;;;;143745;563;46022;-65
2022/03/21 06:01:49;;;;;;;16.15;9.23;;;;;;;;;;143742;591;46012;-65
2022/03/21 06:04:16;;;;;;;18.55;9.70;;;;;;;;;;143741;592;47010;-65
2022/03/21 06:06:44;;;;;;;15.20;8.60;;;;;;;;;;143744;615;45019;-65
2022/03/21 06:09:12;;;;;;;17.37;9.27;;;;;;;;;;143743;573;45023;-65
2022/03/21 06:11:39;;;;;;;14.80;8.95;;;;;;;;;;143733;564;47018;-65
2022/03/21 06:14:07;;;;;;;17.05;9.20;;;;;;;;;;143739;607;47011;-65
2022/03/21 06:16:34;;;;;;;16.45;9.90;;;;;;;;;;143741;583;45019;-65
2022/03/21 06:19:02;;;;;;;17.15;9.98;;;;;;;;;;143745;588;46022;-66
2022/03/21 06:21:29;;;;;;;18.67;9.32;;;;;;;;;;143742;595;47018;-65
2022/03/21 06:23:56;;;;;;;14.77;8.70;;;;;;;;;;143739;594;47011;-64
2022/03/21 06:26:23;;;;;;;15.02;10.68;;;;;;;;;;143741;601;45018;-65
2022/03/21 06:28:50;;;;;;;15.40;9.02;;;;;;;;;;143744;586;46022;-65
2022/03/21 06:31:17;;;;;;;12.40;8.43;;;;;;;;;;143741;576;47019;-65
2022/03/21 06:33:44;;;;;;;14.40;8.98;;;;;;;;;;143742;581;46010;-65
2022/03/21 06:36:11;;;;;;;15.65;10.02;;;;;;;;;;143737;595;45018;-64
2022/03/21 06:38:39;;;;;;;15.45;8.90;;;;;;;;;;143746;564;46023;-65
2022/03/21 06:41:06;;;;;;;11.93;8.73;;;;;;;;;;143742;584;47018;-65
2022/03/21 06:43:33;;;;;;;13.13;7.45;;;;;;;;;;143741;661;47010;-65
2022/03/21 06:46:00;;;;;;;12.68;8.05;;;;;;;;;;143741;566;45019;-65
2022/03/21 06:48:30;;;;;;;21.70;12.07;;;;;;;;;;143745;602;45022;-65
2022/03/21 06:50:57;;;;;;;17.37;10.30;;;;;;;;;;143743;601;47018;-65
2022/03/21 06:53:24;;;;;;;16.30;9.50;;;;;;;;;;143741;583;46010;-65
2022/03/21 06:55:51;;;;;;;16.12;9.02;;;;;;;;;;143742;580;45018;-66
2022/03/21 06:58:18;;;;;;;18.73;10.38;;;;;;;;;;143745;600;45022;-65
2022/03/21 07:00:47;;;;;;;17.73;8.77;;;;;;;;;;143733;591;47019;-64
2022/03/21 07:03:15;;;;;;;17.05;10.25;;;;;;;;;;143741;596;46010;-64
2022/03/21 07:05:43;;;;;;;16.25;9.88;;;;;;;;;;143740;594;46012;-65
2022/03/21 07:08:10;;;;;;;17.05;9.77;;;;;;;;;;143746;571;45023;-64
2022/03/21 07:10:40;;;;;;;20.05;11.32;;;;;;;;;;143742;569;47020;-65
2022/03/21 07:13:07;;;;;;;16.23;9.27;;;;;;;;;;143742;573;46021;-64
2022/03/21 07:15:35;;;;;;;17.73;9.38;;;;;;;;;;143741;712;45019;-65
2022/03/21 07:18:02;;;;;;;16.60;10.43;;;;;;;;;;143745;577;45022;-66
2022/03/21 07:20:29;;;;;;;14.40;8.80;;;;;;;;;;143740;725;47018;-64
2022/03/21 07:22:58;;;;;;;14.73;9.27;;;;;;;;;;143739;643;46030;-67
2022/03/21 07:25:26;;;;;;;15.45;9.52;;;;;;;;;;143733;583;46910;-65
2022/03/21 07:27:53;;;;;;;16.75;10.55;;;;;;;;;;143743;575;45022;-65
2022/03/21 07:30:20;;;;;;;15.30;9.98;;;;;;;;;;143738;573;47019;-65
2022/03/21 07:32:48;;;;;;;16.55;9.55;;;;;;;;;;143740;664;47010;-65
2022/03/21 07:35:15;;;;;;;18.33;9.30;;;;;;;;;;143739;599;45911;-65
2022/03/21 07:37:46;;;;;;;17.25;9.75;;;;;;;;;;143743;583;45023;-65
2022/03/21 07:40:14;;;;;;;19.08;9.68;;;;;;;;;;143741;607;47018;-65
2022/03/21 07:42:42;;;;;;;16.00;9.75;;;;;;;;;;143739;581;46921;-65
2022/03/21 07:47:55;;;;;;;25.55;10.57;;;;;;;;;;143744;590;46022;-65
2022/03/21 07:50:26;;;;;;;20.30;9.20;;;;;;;;;;143731;616;47018;-65
2022/03/21 07:52:54;;;;;;;19.62;9.88;;;;;;;;;;143736;571;47011;-65
2022/03/21 07:55:22;;;;;;;18.05;8.85;;;;;;;;;;143741;600;45018;-64
2022/03/21 07:57:49;;;;;;;14.98;9.23;;;;;;;;;;143743;604;45022;-65
2022/03/21 08:00:16;;;;;;;16.90;8.05;;;;;;;;;;143739;575;47019;-65
2022/03/21 08:02:45;;;;;;;21.77;10.30;;;;;;;;;;143739;571;46026;-65
2022/03/21 08:05:13;;;;;;;15.63;9.07;;;;;;;;;;143740;569;45911;-65
2022/03/21 08:07:41;;;;;;;19.98;9.40;;;;;;;;;;143738;604;46022;-65
2022/03/21 08:10:08;;;;;;;17.73;9.85;;;;;;;;;;143741;581;47018;-65
2022/03/21 08:12:35;;;;;;;14.73;9.18;;;;;;;;;;143738;587;46022;-65
2022/03/21 08:15:03;;;;;;;14.77;8.70;;;;;;;;;;143736;592;45019;-65
2022/03/21 08:17:30;;;;;;;15.55;9.27;;;;;;;;;;143745;574;45022;-65
2022/03/21 08:19:57;;;;;;;15.38;8.52;;;;;;;;;;143739;604;47018;-66
2022/03/21 08:22:24;;;;;;;15.07;9.35;;;;;;;;;;143739;603;47010;-66
2022/03/21 08:24:52;;;;;;;14.63;8.88;;;;;;;;;;143740;585;45912;-66
2022/03/21 08:27:19;;;;;;;15.65;9.18;;;;;;;;;;143741;584;46022;-65
2022/03/21 08:29:45;;;;;;;13.45;9.13;;;;;;;;;;143739;583;47040;-65
2022/03/21 08:32:12;;;;;;;20.55;9.55;;;;;;;;;;143740;653;46010;-66
2022/03/21 08:34:39;;;;;;;14.68;9.35;;;;;;;;;;143740;574;45912;-66
2022/03/21 08:37:06;;;;;;;14.02;9.50;;;;;;;;;;143742;572;46023;-65
2022/03/21 08:39:33;;;;;;;14.18;9.20;;;;;;;;;;143735;599;47020;-66
2022/03/21 08:42:00;;;;;;;14.80;9.25;;;;;;;;;;143739;577;47010;-66
2022/03/21 08:44:27;;;;;;;15.68;9.20;;;;;;;;;;143739;606;45019;-65
2022/03/21 08:46:54;;;;;;;15.27;9.52;;;;;;;;;;143743;565;45023;-66
2022/03/21 08:49:24;;;;;;;15.93;9.85;;;;;;;;;;143739;563;47018;-66
2022/03/21 08:51:52;;;;;;;15.98;9.00;;;;;;;;;;143739;586;46011;-66
2022/03/21 08:54:19;;;;;;;14.55;9.32;;;;;;;;;;143741;606;45018;-65
2022/03/21 08:56:47;;;;;;;14.00;8.68;;;;;;;;;;143743;636;45022;-66
2022/03/21 08:59:14;;;;;;;17.08;8.90;;;;;;;;;;143740;607;47020;-66
2022/03/21 09:01:42;;;;;;;13.00;8.48;;;;;;;;;;143738;624;47010;-66
2022/03/21 09:04:09;;;;;;;15.15;9.30;;;;;;;;;;143736;566;45018;-66
2022/03/21 09:06:36;;;;;;;13.55;9.63;;;;;;;;;;143744;605;46022;-66
2022/03/21 09:09:03;;;;;;;16.85;10.52;;;;;;;;;;143738;571;47018;-66
2022/03/21 09:11:30;;;;;;;13.98;9.38;;;;;;;;;;143739;648;46027;-66
2022/03/21 09:13:57;;;;;;;20.95;9.55;;;;;;;;;;143739;633;45019;-66
2022/03/21 09:16:24;;;;;;;14.05;8.60;;;;;;;;;;143743;569;46023;-66
2022/03/21 09:18:51;;;;;;;16.80;9.85;;;;;;;;;;143738;583;48018;-66
2022/03/21 09:21:18;;;;;;;13.85;8.70;;;;;;;;;;143740;603;46010;-65
2022/03/21 09:23:45;;;;;;;13.10;8.45;;;;;;;;;;143741;580;45018;-66
2022/03/21 09:26:12;;;;;;;13.60;8.93;;;;;;;;;;143743;563;46022;-66
2022/03/21 09:28:44;;;;;;;14.68;9.30;;;;;;;;;;143732;648;47019;-66
2022/03/21 09:31:14;;;;;;;19.12;10.07;;;;;;;;;;143740;587;46026;-66
2022/03/21 09:33:42;;;;;;;15.32;10.73;;;;;;;;;;143741;596;45018;-66
2022/03/21 09:36:10;;;;;;;16.67;10.02;;;;;;;;;;143743;579;45023;-65
2022/03/21 09:38:37;;;;;;;14.60;9.05;;;;;;;;;;143740;583;47018;-65
2022/03/21 09:41:04;;;;;;;13.35;8.85;;;;;;;;;;143739;661;47010;-65
2022/03/21 09:43:31;;;;;;;14.20;9.32;;;;;;;;;;143740;575;46019;-66
2022/03/21 09:45:59;;;;;;;19.67;9.20;;;;;;;;;;143743;566;45023;-65
2022/03/21 09:48:29;;;;;;;16.45;9.07;;;;;;;;;;143740;600;47018;-66
2022/03/21 09:50:57;;;;;;;12.48;8.60;;;;;;;;;;143738;588;47010;-64
2022/03/21 09:53:25;;;;;;;16.65;9.30;;;;;;;;;;143734;587;45019;-65
2022/03/21 09:55:53;;;;;;;16.95;9.70;;;;;;;;;;143742;576;46022;-65
2022/03/21 09:58:20;;;;;;;24.73;8.00;;;;;;;;;;143740;583;47018;-64
2022/03/21 10:00:49;;;;;;;11.25;7.25;;;;;;;;;;143740;619;46010;-65
2022/03/21 10:03:16;;;;;;;12.25;7.22;;;;;;;;;;143741;585;45020;-65
2022/03/21 10:05:46;;;;;;;13.55;7.72;;;;;;;;;;143744;590;46022;-65
2022/03/21 10:08:27;;;;;;;15.85;8.38;;;;;;;;;;143742;564;47018;-65
2022/03/21 10:10:59;;;;;;;14.52;8.10;;;;;;;;;;143739;597;47010;-66
2022/03/21 10:13:29;;;;;;;15.65;8.10;;;;;;;;;;143742;569;45019;-64
2022/03/21 10:16:21;;;;;;;14.05;7.70;;;;;;;;;;143743;672;45023;-65
2022/03/21 10:18:58;;;;;;;11.43;6.85;;;;;;;;;;143733;623;47018;-65
2022/03/21 10:21:28;;;;;;;11.35;7.35;;;;;;;;;;143736;611;47010;-65
2022/03/21 10:24:15;;;;;;;10.35;6.22;;;;;;;;;;143741;585;45018;-65
2022/03/21 10:26:44;;;;;;;13.43;6.95;;;;;;;;;;143744;581;45024;-65
2022/03/21 10:29:12;;;;;;;11.68;6.80;;;;;;;;;;143739;569;47021;-65
2022/03/21 10:31:44;;;;;;;10.63;5.90;;;;;;;;;;143739;596;47010;-66
2022/03/21 10:34:19;;;;;;;12.98;6.87;;;;;;;;;;143739;603;45018;-65
2022/03/21 10:37:05;;;;;;;10.57;5.67;;;;;;;;;;143744;570;46023;-66
2022/03/21 10:39:34;;;;;;;10.35;5.22;;;;;;;;;;143740;569;47018;-65
2022/03/21 10:42:07;;;;;;;10.13;5.05;;;;;;;;;;143740;565;46010;-65
2022/03/21 10:44:35;;;;;;;12.15;5.30;;;;;;;;;;143736;644;45019;-65
2022/03/21 10:47:06;;;;;;;8.02;5.00;;;;;;;;;;143742;609;46012;-65
2022/03/21 10:49:38;;;;;;;10.23;5.57;;;;;;;;;;143739;579;47018;-65
2022/03/21 10:52:07;;;;;;;10.30;5.12;;;;;;;;;;143740;628;46011;-65
2022/03/21 10:55:04;;;;;;;7.53;4.62;;;;;;;;;;143739;586;45018;-65
2022/03/21 10:57:36;;;;;;;8.38;4.32;;;;;;;;;;143742;564;45024;-64
2022/03/21 11:00:22;;;;;;;11.25;5.47;;;;;;;;;;143739;564;47018;-65
2022/03/21 11:03:15;;;;;;;12.15;4.85;;;;;;;;;;143740;607;46029;-64
2022/03/21 11:05:45;;;;;;;6.32;3.85;;;;;;;;;;143740;638;45019;-64
2022/03/21 11:08:15;;;;;;;8.20;4.57;;;;;;;;;;143741;566;45023;-66
2022/03/21 11:10:43;;;;;;;9.38;4.78;;;;;;;;;;143732;578;47020;-65
2022/03/21 11:13:11;;;;;;;7.28;4.18;;;;;;;;;;143738;566;46023;-66
2022/03/21 11:15:42;;;;;;;7.80;3.47;;;;;;;;;;143741;573;45018;-67
2022/03/21 11:18:11;;;;;;;5.35;3.30;;;;;;;;;;143743;587;45022;-66
2022/03/21 11:20:38;;;;;;;8.65;4.20;;;;;;;;;;143740;569;47019;-65
2022/03/21 11:23:05;;;;;;;9.52;3.95;;;;;;;;;;143739;616;46029;-65
2022/03/21 11:25:35;;;;;;;7.47;4.28;;;;;;;;;;143741;577;45018;-65
2022/03/21 11:28:26;;;;;;;7.43;4.25;;;;;;;;;;143743;581;45023;-65
2022/03/21 11:31:31;;;;;;;8.80;3.92;;;;;;;;;;143737;665;48018;-65
2022/03/21 11:34:41;;;;;;;6.32;4.00;;;;;;;;;;143740;578;46010;-65
2022/03/21 11:37:27;;;;;;;6.80;3.90;;;;;;;;;;143735;624;45019;-66
2022/03/21 11:40:39;;;;;;;3.75;3.17;;;;;;;;;;143743;614;45022;-66
2022/03/21 11:43:38;;;;;;;14.60;7.10;;;;;;;;;;143733;605;47020;-65
2022/03/21 11:46:40;;;;;;;8.10;4.78;;;;;;;;;;143739;603;47010;-66
2022/03/21 11:49:43;;;;;;;5.95;4.10;;;;;;;;;;143741;591;45020;-65
2022/03/21 11:52:11;;;;;;;16.80;8.20;;;;;;;;;;143743;585;45023;-66
2022/03/21 11:54:38;;;;;;;13.30;7.50;;;;;;;;;;143739;573;47020;-65
2022/03/21 11:57:10;;;;;;;9.88;6.45;;;;;;;;;;143738;564;47010;-66
2022/03/21 11:59:48;;;;;;;9.80;5.70;;;;;;;;;;143739;619;45025;-66
2022/03/21 12:02:57;;;;;;;5.60;3.37;;;;;;;;;;143741;614;45022;-65
2022/03/21 12:05:40;;;;;;;9.55;5.85;;;;;;;;;;143733;614;47019;-66
2022/03/21 12:08:32;;;;;;;7.35;4.60;;;;;;;;;;143738;607;48010;-64
2022/03/21 12:11:00;;;;;;;6.82;4.07;;;;;;;;;;143739;591;45023;-65
2022/03/21 12:13:41;;;;;;;9.25;4.97;;;;;;;;;;143743;569;45023;-65
2022/03/21 12:16:18;;;;;;;13.40;7.30;;;;;;;;;;143739;635;47018;-65
2022/03/21 12:19:16;;;;;;;22.55;9.93;;;;;;;;;;143738;598;46010;-66
2022/03/21 12:21:44;;;;;;;12.70;7.22;;;;;;;;;;143740;619;45019;-65
2022/03/21 12:24:18;;;;;;;14.40;7.28;;;;;;;;;;143744;589;45022;-65
2022/03/21 12:26:52;;;;;;;7.68;3.90;;;;;;;;;;143738;630;47020;-65
2022/03/21 12:29:32;;;;;;;8.40;4.82;;;;;;;;;;143740;612;46010;-65
2022/03/21 12:32:47;;;;;;;7.00;3.90;;;;;;;;;;143735;618;45018;-66
2022/03/21 12:35:53;;;;;;;10.50;5.62;;;;;;;;;;143744;663;45024;-65
2022/03/21 12:38:30;;;;;;;11.02;4.62;;;;;;;;;;143739;598;47039;-65
2022/03/21 12:40:59;;;;;;;10.25;5.62;;;;;;;;;;143739;569;46010;-65
2022/03/21 12:43:44;;;;;;;11.77;5.82;;;;;;;;;;143740;564;45019;-65
2022/03/21 12:46:14;;;;;;;8.18;4.68;;;;;;;;;;143742;564;46022;-65
2022/03/21 12:49:09;;;;;;;7.22;4.55;;;;;;;;;;143739;637;47018;-65
2022/03/21 12:51:36;;;;;;;9.18;5.07;;;;;;;;;;143739;595;46011;-65
2022/03/21 12:54:04;;;;;;;11.15;4.62;;;;;;;;;;143739;583;45018;-65
2022/03/21 12:56:34;;;;;;;11.12;6.53;;;;;;;;;;143744;591;45022;-64
2022/03/21 12:59:05;;;;;;;19.45;6.18;;;;;;;;;;143735;569;47018;-65
2022/03/21 13:01:33;;;;;;;12.60;5.85;;;;;;;;;;143737;639;47010;-65
2022/03/21 13:12:31;;;;;;;9.75;4.93;;;;;;;;;;143739;576;46020;-65
2022/03/21 13:15:04;;;;;;;10.77;4.85;;;;;;;;;;143741;608;45019;-66
2022/03/21 13:17:44;;;;;;;18.15;8.80;;;;;;;;;;143741;592;46010;-66
2022/03/21 13:23:00;;;;;;;11.98;5.00;;;;;;;;;;143740;586;45923;-64
2022/03/21 13:25:32;;;;;;;9.60;6.05;;;;;;;;;;143736;569;45018;-65
2022/03/21 13:28:33;;;;;;;10.05;5.22;;;;;;;;;;143744;564;45023;-66
2022/03/21 13:31:09;;;;;;;12.98;7.30;;;;;;;;;;143735;651;47018;-65
2022/03/21 13:33:38;;;;;;;9.43;5.53;;;;;;;;;;143738;609;47011;-65
2022/03/21 13:36:07;;;;;;;11.25;5.68;;;;;;;;;;143742;591;45019;-65
2022/03/21 13:38:37;;;;;;;11.10;4.12;;;;;;;;;;143744;571;45022;-65
2022/03/21 13:41:13;;;;;;;9.63;4.37;;;;;;;;;;143742;660;47019;-65
2022/03/21 13:43:41;;;;;;;11.35;4.78;;;;;;;;;;143741;645;46011;-65
2022/03/21 13:46:09;;;;;;;11.70;5.10;;;;;;;;;;143740;554;45018;-65
2022/03/21 13:48:38;;;;;;;9.00;5.53;;;;;;;;;;143746;596;45022;-65
2022/03/21 13:51:23;;;;;;;11.63;5.37;;;;;;;;;;143734;577;47018;-65
2022/03/21 13:54:09;;;;;;;8.10;4.53;;;;;;;;;;143739;585;46010;-65
2022/03/21 13:56:37;;;;;;;7.47;4.47;;;;;;;;;;143737;613;46018;-65
2022/03/21 13:59:17;;;;;;;8.70;4.60;;;;;;;;;;143744;642;45023;-66
2022/03/21 14:01:46;;;;;;;9.88;4.90;;;;;;;;;;143741;564;47020;-66
2022/03/21 14:04:28;;;;;;;8.80;4.43;;;;;;;;;;143740;570;46011;-65
2022/03/21 14:07:05;;;;;;;5.87;4.32;;;;;;;;;;143741;592;45019;-65
2022/03/21 14:09:33;;;;;;;13.57;5.12;;;;;;;;;;143744;609;46022;-66
2022/03/21 14:12:08;;;;;;;9.70;4.85;;;;;;;;;;143740;570;47018;-66
2022/03/21 14:14:35;;;;;;;;;;;;;;;;;;143744;977;47010;-66
2022/03/21 14:17:04;;;;;;;13.60;5.80;;;;;;;;;;143744;572;45018;-66
2022/03/21 14:19:31;;;;;;;9.27;5.70;;;;;;;;;;143744;617;46022;-66
2022/03/21 14:21:58;;;;;;;6.78;4.30;;;;;;;;;;143741;583;47018;-65
2022/03/21 14:24:25;;;;;;;10.90;4.78;;;;;;;;;;143739;603;47010;-66
2022/03/21 14:26:52;;;;;;;9.60;5.10;;;;;;;;;;143739;576;45019;-66
2022/03/21 14:29:19;;;;;;;10.25;4.78;;;;;;;;;;143744;641;45023;-65
2022/03/21 14:31:47;;;;;;;9.55;4.37;;;;;;;;;;143742;633;47018;-66
2022/03/21 14:34:15;;;;;;;6.75;4.28;;;;;;;;;;143740;615;47010;-65
2022/03/21 14:36:43;;;;;;;9.10;4.57;;;;;;;;;;143742;569;45018;-65
2022/03/21 14:39:10;;;;;;;7.82;4.25;;;;;;;;;;143745;564;46022;-66
2022/03/21 14:41:38;;;;;;;12.80;4.72;;;;;;;;;;143735;618;47019;-66
2022/03/21 14:44:05;;;;;;;7.40;4.15;;;;;;;;;;143739;621;46010;-65
2022/03/21 14:46:32;;;;;;;6.07;3.78;;;;;;;;;;143741;590;45018;-65
2022/03/21 14:48:59;;;;;;;6.85;3.78;;;;;;;;;;143745;576;45023;-65
2022/03/21 14:51:26;;;;;;;7.85;4.07;;;;;;;;;;143741;587;47018;-65
2022/03/21 14:53:54;;;;;;;5.50;3.90;;;;;;;;;;143740;564;46010;-66
2022/03/21 14:56:21;;;;;;;6.47;3.83;;;;;;;;;;143740;592;45019;-65
2022/03/21 14:58:48;;;;;;;6.25;3.90;;;;;;;;;;143743;577;45023;-66
2022/03/21 15:01:16;;;;;;;6.12;3.55;;;;;;;;;;143743;627;47018;-66
2022/03/21 15:03:43;;;;;;;6.62;3.75;;;;;;;;;;143741;666;46011;-65
2022/03/21 15:06:10;;;;;;;5.10;3.42;;;;;;;;;;143743;609;45019;-66
2022/03/21 15:08:37;;;;;;;6.37;3.60;;;;;;;;;;143744;661;46022;-65
2022/03/21 15:11:06;;;;;;;7.60;3.80;;;;;;;;;;143741;591;47019;-65
2022/03/21 15:13:33;;;;;;;4.93;3.47;;;;;;;;;;143738;588;47012;-64
2022/03/21 15:16:00;;;;;;;11.40;3.80;;;;;;;;;;143741;592;45018;-65
2022/03/21 15:18:27;;;;;;;7.15;4.45;;;;;;;;;;143745;579;45023;-64